Terminal Aerodrome Forecast
Issued by NWS

Home | Current Version | Previous Version | Text Only | Print | Product List | Glossary On
Versions: 1 2 3 4 5 6 7 8 9 10 11 12 13 14 15 16
115
FTUS41 KBTV 060531
TAFMPV
TAF
KMPV 060531Z 0606/0706 30004KT P6SM FEW200
     FM060800 00000KT P6SM BKN070
     FM061400 20006KT P6SM BKN045
     FM062300 21007KT P6SM SCT040=

USA.gov is the U.S. government's official web portal to all federal, state and local government web resources and services.